sensor_id;sensor_type;location;lat;lon;timestamp;P1;durP1;ratioP1;P2;durP2;ratioP2
19617;SDS011;9956;51.006;13.670;2022-12-07T00:04:25;40.95;;;20.17;;
19617;SDS011;9956;51.006;13.670;2022-12-07T00:09:26;37.42;;;19.02;;
19617;SDS011;9956;51.006;13.670;2022-12-07T00:14:26;41.13;;;21.27;;
19617;SDS011;9956;51.006;13.670;2022-12-07T00:19:26;39.45;;;19.55;;
19617;SDS011;9956;51.006;13.670;2022-12-07T00:24:27;46.45;;;18.35;;
19617;SDS011;9956;51.006;13.670;2022-12-07T00:29:27;45.97;;;20.02;;
19617;SDS011;9956;51.006;13.670;2022-12-07T00:34:28;32.78;;;17.58;;
19617;SDS011;9956;51.006;13.670;2022-12-07T00:39:28;38.50;;;18.33;;
19617;SDS011;9956;51.006;13.670;2022-12-07T00:44:29;38.97;;;19.98;;
19617;SDS011;9956;51.006;13.670;2022-12-07T00:49:29;38.70;;;18.83;;
19617;SDS011;9956;51.006;13.670;2022-12-07T00:54:30;35.50;;;19.92;;
19617;SDS011;9956;51.006;13.670;2022-12-07T00:59:30;54.00;;;25.17;;
19617;SDS011;9956;51.006;13.670;2022-12-07T01:04:32;42.95;;;26.58;;
19617;SDS011;9956;51.006;13.670;2022-12-07T01:09:34;50.50;;;24.85;;
19617;SDS011;9956;51.006;13.670;2022-12-07T01:14:35;46.65;;;20.05;;
19617;SDS011;9956;51.006;13.670;2022-12-07T01:19:35;50.47;;;21.42;;
19617;SDS011;9956;51.006;13.670;2022-12-07T01:24:36;43.55;;;20.63;;
19617;SDS011;9956;51.006;13.670;2022-12-07T01:29:36;52.03;;;21.75;;
19617;SDS011;9956;51.006;13.670;2022-12-07T01:34:37;39.10;;;19.45;;
19617;SDS011;9956;51.006;13.670;2022-12-07T01:39:37;48.17;;;21.55;;
19617;SDS011;9956;51.006;13.670;2022-12-07T01:50:15;47.03;;;19.23;;
19617;SDS011;9956;51.006;13.670;2022-12-07T01:55:16;28.80;;;16.60;;
19617;SDS011;9956;51.006;13.670;2022-12-07T02:00:17;37.03;;;17.83;;
19617;SDS011;9956;51.006;13.670;2022-12-07T02:05:18;28.88;;;14.98;;
19617;SDS011;9956;51.006;13.670;2022-12-07T02:10:20;31.33;;;14.90;;
19617;SDS011;9956;51.006;13.670;2022-12-07T02:15:24;33.50;;;18.08;;
19617;SDS011;9956;51.006;13.670;2022-12-07T02:20:30;34.97;;;15.65;;
19617;SDS011;9956;51.006;13.670;2022-12-07T02:31:04;40.92;;;17.55;;
19617;SDS011;9956;51.006;13.670;2022-12-07T02:41:13;50.00;;;19.48;;
19617;SDS011;9956;51.006;13.670;2022-12-07T02:46:20;46.63;;;23.35;;
19617;SDS011;9956;51.006;13.670;2022-12-07T02:51:29;55.67;;;23.42;;
19617;SDS011;9956;51.006;13.670;2022-12-07T02:56:35;67.05;;;29.98;;
19617;SDS011;9956;51.006;13.670;2022-12-07T03:12:35;75.47;;;30.58;;
19617;SDS011;9956;51.006;13.670;2022-12-07T03:17:40;74.00;;;31.75;;
19617;SDS011;9956;51.006;13.670;2022-12-07T03:22:43;43.97;;;22.35;;
19617;SDS011;9956;51.006;13.670;2022-12-07T03:44:30;60.78;;;24.40;;
19617;SDS011;9956;51.006;13.670;2022-12-07T03:49:40;67.45;;;25.23;;
19617;SDS011;9956;51.006;13.670;2022-12-07T03:54:45;58.08;;;33.08;;
19617;SDS011;9956;51.006;13.670;2022-12-07T03:59:50;59.97;;;23.23;;
19617;SDS011;9956;51.006;13.670;2022-12-07T04:04:51;48.95;;;21.98;;
19617;SDS011;9956;51.006;13.670;2022-12-07T04:09:52;55.83;;;26.13;;
19617;SDS011;9956;51.006;13.670;2022-12-07T04:14:54;46.65;;;20.90;;
19617;SDS011;9956;51.006;13.670;2022-12-07T04:19:55;49.50;;;20.95;;
19617;SDS011;9956;51.006;13.670;2022-12-07T04:24:55;38.92;;;20.17;;
19617;SDS011;9956;51.006;13.670;2022-12-07T04:29:56;46.45;;;20.95;;
19617;SDS011;9956;51.006;13.670;2022-12-07T04:34:56;34.38;;;20.20;;
19617;SDS011;9956;51.006;13.670;2022-12-07T04:39:57;46.92;;;21.50;;
19617;SDS011;9956;51.006;13.670;2022-12-07T04:44:57;36.35;;;18.65;;
19617;SDS011;9956;51.006;13.670;2022-12-07T04:49:58;42.55;;;20.25;;
19617;SDS011;9956;51.006;13.670;2022-12-07T04:54:58;38.90;;;18.40;;
19617;SDS011;9956;51.006;13.670;2022-12-07T04:59:58;31.80;;;16.63;;
19617;SDS011;9956;51.006;13.670;2022-12-07T05:04:59;29.63;;;17.27;;
19617;SDS011;9956;51.006;13.670;2022-12-07T05:09:59;28.05;;;17.38;;
19617;SDS011;9956;51.006;13.670;2022-12-07T05:15:00;26.90;;;15.48;;
19617;SDS011;9956;51.006;13.670;2022-12-07T05:20:00;32.78;;;15.13;;
19617;SDS011;9956;51.006;13.670;2022-12-07T05:25:01;25.90;;;15.05;;
19617;SDS011;9956;51.006;13.670;2022-12-07T05:30:01;27.95;;;14.43;;
19617;SDS011;9956;51.006;13.670;2022-12-07T05:35:02;27.08;;;16.00;;
19617;SDS011;9956;51.006;13.670;2022-12-07T05:40:03;29.15;;;13.52;;
19617;SDS011;9956;51.006;13.670;2022-12-07T05:45:05;29.15;;;19.08;;
19617;SDS011;9956;51.006;13.670;2022-12-07T05:50:15;26.80;;;15.73;;
19617;SDS011;9956;51.006;13.670;2022-12-07T05:55:21;19.70;;;13.13;;
19617;SDS011;9956;51.006;13.670;2022-12-07T06:00:21;22.10;;;15.43;;
19617;SDS011;9956;51.006;13.670;2022-12-07T06:05:22;14.65;;;10.10;;
19617;SDS011;9956;51.006;13.670;2022-12-07T06:10:22;14.80;;;9.75;;
19617;SDS011;9956;51.006;13.670;2022-12-07T06:15:22;14.20;;;9.57;;
19617;SDS011;9956;51.006;13.670;2022-12-07T06:20:23;17.88;;;12.32;;
19617;SDS011;9956;51.006;13.670;2022-12-07T06:25:23;17.55;;;12.98;;
19617;SDS011;9956;51.006;13.670;2022-12-07T06:30:24;16.15;;;11.63;;
19617;SDS011;9956;51.006;13.670;2022-12-07T06:35:24;17.20;;;10.68;;
19617;SDS011;9956;51.006;13.670;2022-12-07T06:40:25;17.02;;;10.60;;
19617;SDS011;9956;51.006;13.670;2022-12-07T06:45:25;19.60;;;13.13;;
19617;SDS011;9956;51.006;13.670;2022-12-07T06:50:26;18.52;;;14.57;;
19617;SDS011;9956;51.006;13.670;2022-12-07T06:55:26;16.45;;;12.50;;
19617;SDS011;9956;51.006;13.670;2022-12-07T07:00:29;14.93;;;12.27;;
19617;SDS011;9956;51.006;13.670;2022-12-07T07:05:30;11.15;;;8.88;;
19617;SDS011;9956;51.006;13.670;2022-12-07T07:10:30;14.43;;;12.60;;
19617;SDS011;9956;51.006;13.670;2022-12-07T07:15:31;10.48;;;9.10;;
19617;SDS011;9956;51.006;13.670;2022-12-07T07:20:32;9.98;;;8.32;;
19617;SDS011;9956;51.006;13.670;2022-12-07T07:25:33;9.88;;;7.35;;
19617;SDS011;9956;51.006;13.670;2022-12-07T07:30:34;11.38;;;8.93;;
19617;SDS011;9956;51.006;13.670;2022-12-07T07:35:34;14.77;;;11.80;;
19617;SDS011;9956;51.006;13.670;2022-12-07T07:40:37;14.38;;;11.27;;
19617;SDS011;9956;51.006;13.670;2022-12-07T07:45:38;16.08;;;11.77;;
19617;SDS011;9956;51.006;13.670;2022-12-07T07:50:38;19.02;;;13.75;;
19617;SDS011;9956;51.006;13.670;2022-12-07T07:55:39;17.70;;;13.90;;
19617;SDS011;9956;51.006;13.670;2022-12-07T08:00:39;24.38;;;15.32;;
19617;SDS011;9956;51.006;13.670;2022-12-07T08:05:40;35.28;;;20.77;;
19617;SDS011;9956;51.006;13.670;2022-12-07T08:10:40;31.17;;;22.92;;
19617;SDS011;9956;51.006;13.670;2022-12-07T08:15:45;37.10;;;24.73;;
19617;SDS011;9956;51.006;13.670;2022-12-07T08:20:46;31.75;;;20.92;;
19617;SDS011;9956;51.006;13.670;2022-12-07T08:25:47;33.53;;;21.73;;
19617;SDS011;9956;51.006;13.670;2022-12-07T08:30:47;33.95;;;21.20;;
19617;SDS011;9956;51.006;13.670;2022-12-07T08:35:48;34.42;;;22.58;;
19617;SDS011;9956;51.006;13.670;2022-12-07T08:40:54;30.50;;;18.90;;
19617;SDS011;9956;51.006;13.670;2022-12-07T08:51:19;24.98;;;17.45;;
19617;SDS011;9956;51.006;13.670;2022-12-07T08:56:21;25.92;;;18.30;;
19617;SDS011;9956;51.006;13.670;2022-12-07T09:01:22;23.73;;;17.00;;
19617;SDS011;9956;51.006;13.670;2022-12-07T09:06:23;27.13;;;17.15;;
19617;SDS011;9956;51.006;13.670;2022-12-07T09:11:23;25.60;;;18.45;;
19617;SDS011;9956;51.006;13.670;2022-12-07T09:16:23;13.77;;;12.27;;
19617;SDS011;9956;51.006;13.670;2022-12-07T09:21:24;11.98;;;9.52;;
19617;SDS011;9956;51.006;13.670;2022-12-07T09:26:24;9.27;;;7.78;;
19617;SDS011;9956;51.006;13.670;2022-12-07T09:31:25;11.32;;;8.07;;
19617;SDS011;9956;51.006;13.670;2022-12-07T09:36:26;9.40;;;7.25;;
19617;SDS011;9956;51.006;13.670;2022-12-07T09:41:34;10.13;;;7.60;;
19617;SDS011;9956;51.006;13.670;2022-12-07T09:46:39;10.10;;;6.93;;
19617;SDS011;9956;51.006;13.670;2022-12-07T09:51:42;8.40;;;6.50;;
19617;SDS011;9956;51.006;13.670;2022-12-07T09:56:42;6.93;;;5.18;;
19617;SDS011;9956;51.006;13.670;2022-12-07T10:01:44;7.28;;;5.68;;
19617;SDS011;9956;51.006;13.670;2022-12-07T10:06:47;8.07;;;4.72;;
19617;SDS011;9956;51.006;13.670;2022-12-07T10:12:07;8.48;;;5.50;;
19617;SDS011;9956;51.006;13.670;2022-12-07T10:17:29;7.22;;;6.15;;
19617;SDS011;9956;51.006;13.670;2022-12-07T10:22:31;9.00;;;6.90;;
19617;SDS011;9956;51.006;13.670;2022-12-07T10:27:32;6.75;;;5.35;;
19617;SDS011;9956;51.006;13.670;2022-12-07T10:32:33;6.38;;;4.82;;
19617;SDS011;9956;51.006;13.670;2022-12-07T10:37:38;7.10;;;5.43;;
19617;SDS011;9956;51.006;13.670;2022-12-07T10:42:40;6.85;;;5.28;;
19617;SDS011;9956;51.006;13.670;2022-12-07T10:47:48;7.43;;;6.22;;
19617;SDS011;9956;51.006;13.670;2022-12-07T10:53:01;8.30;;;6.85;;
19617;SDS011;9956;51.006;13.670;2022-12-07T10:58:51;8.20;;;6.28;;
19617;SDS011;9956;51.006;13.670;2022-12-07T11:09:00;8.43;;;6.10;;
19617;SDS011;9956;51.006;13.670;2022-12-07T11:14:25;8.73;;;5.43;;
19617;SDS011;9956;51.006;13.670;2022-12-07T11:19:53;7.75;;;6.10;;
19617;SDS011;9956;51.006;13.670;2022-12-07T11:30:22;8.50;;;6.07;;
19617;SDS011;9956;51.006;13.670;2022-12-07T11:40:45;12.48;;;7.78;;
19617;SDS011;9956;51.006;13.670;2022-12-07T11:45:53;17.33;;;9.13;;
19617;SDS011;9956;51.006;13.670;2022-12-07T11:51:06;16.17;;;10.98;;
19617;SDS011;9956;51.006;13.670;2022-12-07T11:56:16;14.98;;;11.15;;
19617;SDS011;9956;51.006;13.670;2022-12-07T12:06:43;14.48;;;10.48;;
19617;SDS011;9956;51.006;13.670;2022-12-07T12:11:58;16.65;;;11.10;;
19617;SDS011;9956;51.006;13.670;2022-12-07T12:17:07;15.57;;;11.02;;
19617;SDS011;9956;51.006;13.670;2022-12-07T12:22:22;17.00;;;11.60;;
19617;SDS011;9956;51.006;13.670;2022-12-07T12:27:32;16.95;;;10.05;;
19617;SDS011;9956;51.006;13.670;2022-12-07T12:32:39;13.45;;;10.25;;
19617;SDS011;9956;51.006;13.670;2022-12-07T12:37:41;11.38;;;9.35;;
19617;SDS011;9956;51.006;13.670;2022-12-07T12:42:46;13.27;;;9.82;;
19617;SDS011;9956;51.006;13.670;2022-12-07T12:47:54;15.13;;;9.25;;
19617;SDS011;9956;51.006;13.670;2022-12-07T12:58:31;15.77;;;8.80;;
19617;SDS011;9956;51.006;13.670;2022-12-07T13:03:34;22.15;;;10.73;;
19617;SDS011;9956;51.006;13.670;2022-12-07T13:08:34;16.15;;;10.15;;
19617;SDS011;9956;51.006;13.670;2022-12-07T13:13:36;25.60;;;15.40;;
19617;SDS011;9956;51.006;13.670;2022-12-07T13:18:37;31.35;;;21.35;;
19617;SDS011;9956;51.006;13.670;2022-12-07T13:28:48;25.42;;;14.73;;
19617;SDS011;9956;51.006;13.670;2022-12-07T13:33:51;24.23;;;13.85;;
19617;SDS011;9956;51.006;13.670;2022-12-07T13:38:55;30.42;;;14.80;;
19617;SDS011;9956;51.006;13.670;2022-12-07T13:44:14;29.88;;;15.55;;
19617;SDS011;9956;51.006;13.670;2022-12-07T13:49:16;27.75;;;12.18;;
19617;SDS011;9956;51.006;13.670;2022-12-07T13:54:21;18.77;;;11.18;;
19617;SDS011;9956;51.006;13.670;2022-12-07T13:59:23;21.08;;;11.18;;
19617;SDS011;9956;51.006;13.670;2022-12-07T14:09:34;23.35;;;12.82;;
19617;SDS011;9956;51.006;13.670;2022-12-07T14:14:35;24.98;;;14.07;;
19617;SDS011;9956;51.006;13.670;2022-12-07T14:24:43;15.57;;;9.43;;
19617;SDS011;9956;51.006;13.670;2022-12-07T14:29:44;20.45;;;10.43;;
19617;SDS011;9956;51.006;13.670;2022-12-07T14:34:58;16.63;;;9.63;;
19617;SDS011;9956;51.006;13.670;2022-12-07T14:40:02;12.07;;;6.43;;
19617;SDS011;9956;51.006;13.670;2022-12-07T14:45:03;11.82;;;7.40;;
19617;SDS011;9956;51.006;13.670;2022-12-07T14:50:04;9.02;;;6.70;;
19617;SDS011;9956;51.006;13.670;2022-12-07T14:55:17;13.32;;;5.85;;
19617;SDS011;9956;51.006;13.670;2022-12-07T15:00:24;12.30;;;7.63;;
19617;SDS011;9956;51.006;13.670;2022-12-07T15:05:26;16.58;;;9.32;;
19617;SDS011;9956;51.006;13.670;2022-12-07T15:10:28;23.30;;;15.10;;
19617;SDS011;9956;51.006;13.670;2022-12-07T15:15:31;16.88;;;10.52;;
19617;SDS011;9956;51.006;13.670;2022-12-07T15:20:32;12.43;;;7.03;;
19617;SDS011;9956;51.006;13.670;2022-12-07T15:25:32;34.43;;;22.30;;
19617;SDS011;9956;51.006;13.670;2022-12-07T15:30:33;21.00;;;12.40;;
19617;SDS011;9956;51.006;13.670;2022-12-07T15:35:37;17.50;;;10.90;;
19617;SDS011;9956;51.006;13.670;2022-12-07T15:40:42;16.08;;;9.27;;
19617;SDS011;9956;51.006;13.670;2022-12-07T15:45:42;11.88;;;6.55;;
19617;SDS011;9956;51.006;13.670;2022-12-07T15:50:43;11.30;;;5.03;;
19617;SDS011;9956;51.006;13.670;2022-12-07T15:55:43;12.40;;;6.15;;
19617;SDS011;9956;51.006;13.670;2022-12-07T16:00:44;14.73;;;9.15;;
19617;SDS011;9956;51.006;13.670;2022-12-07T16:05:51;8.20;;;4.60;;
19617;SDS011;9956;51.006;13.670;2022-12-07T16:10:52;9.02;;;5.10;;
19617;SDS011;9956;51.006;13.670;2022-12-07T16:15:52;10.82;;;5.47;;
19617;SDS011;9956;51.006;13.670;2022-12-07T16:20:53;9.07;;;4.45;;
19617;SDS011;9956;51.006;13.670;2022-12-07T16:25:53;7.07;;;4.28;;
19617;SDS011;9956;51.006;13.670;2022-12-07T16:31:01;6.13;;;5.10;;
19617;SDS011;9956;51.006;13.670;2022-12-07T16:36:10;10.23;;;5.82;;
19617;SDS011;9956;51.006;13.670;2022-12-07T16:41:11;8.30;;;5.85;;
19617;SDS011;9956;51.006;13.670;2022-12-07T16:46:15;5.03;;;3.30;;
19617;SDS011;9956;51.006;13.670;2022-12-07T16:51:15;5.97;;;3.33;;
19617;SDS011;9956;51.006;13.670;2022-12-07T16:56:16;9.90;;;5.88;;
19617;SDS011;9956;51.006;13.670;2022-12-07T17:01:17;7.47;;;3.33;;
19617;SDS011;9956;51.006;13.670;2022-12-07T17:13:42;3.75;;;2.97;;
19617;SDS011;9956;51.006;13.670;2022-12-07T17:19:35;4.50;;;4.10;;
19617;SDS011;9956;51.006;13.670;2022-12-07T17:24:35;7.00;;;3.78;;
19617;SDS011;9956;51.006;13.670;2022-12-07T17:29:36;6.93;;;3.90;;
19617;SDS011;9956;51.006;13.670;2022-12-07T17:34:36;6.43;;;4.15;;
19617;SDS011;9956;51.006;13.670;2022-12-07T17:39:37;5.65;;;4.43;;
19617;SDS011;9956;51.006;13.670;2022-12-07T17:44:37;8.50;;;4.50;;
19617;SDS011;9956;51.006;13.670;2022-12-07T17:49:38;6.45;;;4.10;;
19617;SDS011;9956;51.006;13.670;2022-12-07T17:54:38;6.82;;;3.83;;
19617;SDS011;9956;51.006;13.670;2022-12-07T17:59:39;6.25;;;3.85;;
19617;SDS011;9956;51.006;13.670;2022-12-07T18:04:39;6.53;;;4.57;;
19617;SDS011;9956;51.006;13.670;2022-12-07T18:09:42;6.20;;;3.92;;
19617;SDS011;9956;51.006;13.670;2022-12-07T18:14:42;5.93;;;3.70;;
19617;SDS011;9956;51.006;13.670;2022-12-07T18:19:43;7.63;;;5.95;;
19617;SDS011;9956;51.006;13.670;2022-12-07T18:24:43;6.50;;;4.10;;
19617;SDS011;9956;51.006;13.670;2022-12-07T18:29:44;5.85;;;3.30;;
19617;SDS011;9956;51.006;13.670;2022-12-07T18:34:44;3.72;;;3.30;;
19617;SDS011;9956;51.006;13.670;2022-12-07T18:39:45;5.50;;;3.80;;
19617;SDS011;9956;51.006;13.670;2022-12-07T18:44:45;6.22;;;3.53;;
19617;SDS011;9956;51.006;13.670;2022-12-07T18:49:45;5.13;;;2.42;;
19617;SDS011;9956;51.006;13.670;2022-12-07T18:54:46;4.47;;;3.10;;
19617;SDS011;9956;51.006;13.670;2022-12-07T18:59:46;4.82;;;3.53;;
19617;SDS011;9956;51.006;13.670;2022-12-07T19:04:48;7.75;;;6.65;;
19617;SDS011;9956;51.006;13.670;2022-12-07T19:09:49;11.90;;;10.27;;
19617;SDS011;9956;51.006;13.670;2022-12-07T19:14:49;10.07;;;8.63;;
19617;SDS011;9956;51.006;13.670;2022-12-07T19:19:49;9.48;;;8.57;;
19617;SDS011;9956;51.006;13.670;2022-12-07T19:24:51;13.32;;;9.50;;
19617;SDS011;9956;51.006;13.670;2022-12-07T19:29:52;12.18;;;9.55;;
19617;SDS011;9956;51.006;13.670;2022-12-07T19:34:53;10.77;;;8.80;;
19617;SDS011;9956;51.006;13.670;2022-12-07T19:39:54;7.63;;;6.82;;
19617;SDS011;9956;51.006;13.670;2022-12-07T19:44:55;9.55;;;7.40;;
19617;SDS011;9956;51.006;13.670;2022-12-07T19:49:56;10.68;;;7.35;;
19617;SDS011;9956;51.006;13.670;2022-12-07T19:54:56;8.38;;;7.30;;
19617;SDS011;9956;51.006;13.670;2022-12-07T19:59:57;8.18;;;6.97;;
19617;SDS011;9956;51.006;13.670;2022-12-07T20:04:57;6.28;;;4.70;;
19617;SDS011;9956;51.006;13.670;2022-12-07T20:09:58;5.63;;;4.45;;
19617;SDS011;9956;51.006;13.670;2022-12-07T20:14:59;5.85;;;4.03;;
19617;SDS011;9956;51.006;13.670;2022-12-07T20:19:59;4.15;;;3.65;;
19617;SDS011;9956;51.006;13.670;2022-12-07T20:25:00;6.82;;;4.43;;
19617;SDS011;9956;51.006;13.670;2022-12-07T20:30:00;6.75;;;5.15;;
19617;SDS011;9956;51.006;13.670;2022-12-07T20:35:01;7.47;;;4.00;;
19617;SDS011;9956;51.006;13.670;2022-12-07T20:40:01;4.97;;;3.55;;
19617;SDS011;9956;51.006;13.670;2022-12-07T20:45:02;8.07;;;3.95;;
19617;SDS011;9956;51.006;13.670;2022-12-07T20:50:05;5.47;;;4.07;;
19617;SDS011;9956;51.006;13.670;2022-12-07T20:55:06;6.78;;;4.43;;
19617;SDS011;9956;51.006;13.670;2022-12-07T21:00:07;10.77;;;6.63;;
19617;SDS011;9956;51.006;13.670;2022-12-07T21:05:08;7.95;;;5.43;;
19617;SDS011;9956;51.006;13.670;2022-12-07T21:10:09;7.90;;;4.70;;
19617;SDS011;9956;51.006;13.670;2022-12-07T21:15:09;11.00;;;5.18;;
19617;SDS011;9956;51.006;13.670;2022-12-07T21:20:10;7.65;;;4.10;;
19617;SDS011;9956;51.006;13.670;2022-12-07T21:25:10;7.60;;;5.05;;
19617;SDS011;9956;51.006;13.670;2022-12-07T21:30:11;9.90;;;7.93;;
19617;SDS011;9956;51.006;13.670;2022-12-07T21:35:11;7.05;;;5.78;;
19617;SDS011;9956;51.006;13.670;2022-12-07T21:40:12;6.95;;;5.32;;
19617;SDS011;9956;51.006;13.670;2022-12-07T21:45:12;8.15;;;6.53;;
19617;SDS011;9956;51.006;13.670;2022-12-07T21:50:13;9.30;;;6.88;;
19617;SDS011;9956;51.006;13.670;2022-12-07T21:55:13;5.80;;;5.13;;
19617;SDS011;9956;51.006;13.670;2022-12-07T22:00:14;8.18;;;4.45;;
19617;SDS011;9956;51.006;13.670;2022-12-07T22:05:15;6.93;;;4.45;;
19617;SDS011;9956;51.006;13.670;2022-12-07T22:10:16;12.27;;;4.60;;
19617;SDS011;9956;51.006;13.670;2022-12-07T22:15:27;6.82;;;4.10;;
19617;SDS011;9956;51.006;13.670;2022-12-07T22:20:28;5.45;;;3.97;;
19617;SDS011;9956;51.006;13.670;2022-12-07T22:25:28;8.75;;;7.18;;
19617;SDS011;9956;51.006;13.670;2022-12-07T22:30:29;9.73;;;6.00;;
19617;SDS011;9956;51.006;13.670;2022-12-07T22:35:29;9.68;;;6.05;;
19617;SDS011;9956;51.006;13.670;2022-12-07T22:40:30;6.53;;;5.10;;
19617;SDS011;9956;51.006;13.670;2022-12-07T22:45:31;8.18;;;4.68;;
19617;SDS011;9956;51.006;13.670;2022-12-07T22:50:31;9.40;;;4.90;;
19617;SDS011;9956;51.006;13.670;2022-12-07T22:55:32;7.55;;;5.18;;
19617;SDS011;9956;51.006;13.670;2022-12-07T23:00:32;8.15;;;4.15;;
19617;SDS011;9956;51.006;13.670;2022-12-07T23:05:33;8.45;;;5.55;;
19617;SDS011;9956;51.006;13.670;2022-12-07T23:10:33;6.32;;;4.25;;
19617;SDS011;9956;51.006;13.670;2022-12-07T23:15:34;8.60;;;4.80;;
19617;SDS011;9956;51.006;13.670;2022-12-07T23:20:38;7.80;;;6.45;;
19617;SDS011;9956;51.006;13.670;2022-12-07T23:25:38;10.07;;;5.78;;
19617;SDS011;9956;51.006;13.670;2022-12-07T23:30:39;8.50;;;5.72;;
19617;SDS011;9956;51.006;13.670;2022-12-07T23:35:39;8.05;;;5.30;;
19617;SDS011;9956;51.006;13.670;2022-12-07T23:40:39;9.48;;;5.95;;
19617;SDS011;9956;51.006;13.670;2022-12-07T23:45:43;6.13;;;5.50;;
19617;SDS011;9956;51.006;13.670;2022-12-07T23:50:44;5.43;;;4.70;;
19617;SDS011;9956;51.006;13.670;2022-12-07T23:55:45;7.40;;;5.53;;
